sensor_id;sensor_type;location;lat;lon;timestamp;temperature;humidity
44111;DHT22;29774;52.664;5.074;2023-03-01T00:01:17;-3275.70;88.40
44111;DHT22;29774;52.664;5.074;2023-03-01T00:03:43;-3275.70;88.30
44111;DHT22;29774;52.664;5.074;2023-03-01T00:06:09;-3275.60;88.10
44111;DHT22;29774;52.664;5.074;2023-03-01T00:08:35;-3275.60;88.00
44111;DHT22;29774;52.664;5.074;2023-03-01T00:11:15;-3275.60;88.20
44111;DHT22;29774;52.664;5.074;2023-03-01T00:13:42;-3275.60;88.40
44111;DHT22;29774;52.664;5.074;2023-03-01T00:16:15;-3275.60;88.50
44111;DHT22;29774;52.664;5.074;2023-03-01T00:18:40;-3275.50;88.40
44111;DHT22;29774;52.664;5.074;2023-03-01T00:21:06;-3275.60;88.60
44111;DHT22;29774;52.664;5.074;2023-03-01T00:23:34;-3275.70;89.00
44111;DHT22;29774;52.664;5.074;2023-03-01T00:26:00;-3275.60;89.10
44111;DHT22;29774;52.664;5.074;2023-03-01T00:28:25;-3275.60;89.00
44111;DHT22;29774;52.664;5.074;2023-03-01T00:30:51;-3275.60;88.90
44111;DHT22;29774;52.664;5.074;2023-03-01T00:33:16;-3275.50;88.80
44111;DHT22;29774;52.664;5.074;2023-03-01T00:35:42;-3275.50;88.80
44111;DHT22;29774;52.664;5.074;2023-03-01T00:38:08;-3275.50;88.90
44111;DHT22;29774;52.664;5.074;2023-03-01T00:40:35;-3275.50;88.90
44111;DHT22;29774;52.664;5.074;2023-03-01T00:43:01;-3275.40;88.80
44111;DHT22;29774;52.664;5.074;2023-03-01T00:45:27;-3275.40;88.80
44111;DHT22;29774;52.664;5.074;2023-03-01T00:47:53;-3275.40;88.60
44111;DHT22;29774;52.664;5.074;2023-03-01T00:50:19;-3275.30;88.50
44111;DHT22;29774;52.664;5.074;2023-03-01T00:52:45;-3275.30;88.70
44111;DHT22;29774;52.664;5.074;2023-03-01T00:55:11;-3275.40;88.90
44111;DHT22;29774;52.664;5.074;2023-03-01T00:57:37;-3275.40;88.90
44111;DHT22;29774;52.664;5.074;2023-03-01T01:00:05;-3275.30;89.00
44111;DHT22;29774;52.664;5.074;2023-03-01T01:02:33;-3275.30;89.10
44111;DHT22;29774;52.664;5.074;2023-03-01T01:04:59;-3275.30;89.10
44111;DHT22;29774;52.664;5.074;2023-03-01T01:07:24;-3275.30;89.00
44111;DHT22;29774;52.664;5.074;2023-03-01T01:09:50;-3275.30;89.00
44111;DHT22;29774;52.664;5.074;2023-03-01T01:12:16;-3275.30;89.00
44111;DHT22;29774;52.664;5.074;2023-03-01T01:14:41;-3275.20;89.00
44111;DHT22;29774;52.664;5.074;2023-03-01T01:17:07;-3275.10;88.70
44111;DHT22;29774;52.664;5.074;2023-03-01T01:19:32;-3275.10;88.70
44111;DHT22;29774;52.664;5.074;2023-03-01T01:21:58;-3275.00;88.60
44111;DHT22;29774;52.664;5.074;2023-03-01T01:24:24;-3275.10;88.80
44111;DHT22;29774;52.664;5.074;2023-03-01T01:26:49;-3275.00;88.60
44111;DHT22;29774;52.664;5.074;2023-03-01T01:29:15;-3275.00;88.70
44111;DHT22;29774;52.664;5.074;2023-03-01T01:31:42;-3275.00;88.70
44111;DHT22;29774;52.664;5.074;2023-03-01T01:34:15;-3275.00;88.80
44111;DHT22;29774;52.664;5.074;2023-03-01T01:36:42;-3275.00;88.90
44111;DHT22;29774;52.664;5.074;2023-03-01T01:39:07;-3275.00;88.80
44111;DHT22;29774;52.664;5.074;2023-03-01T01:41:36;-3274.90;88.70
44111;DHT22;29774;52.664;5.074;2023-03-01T01:44:25;-3275.00;89.00
44111;DHT22;29774;52.664;5.074;2023-03-01T01:47:03;-3275.00;88.90
44111;DHT22;29774;52.664;5.074;2023-03-01T01:49:43;-3274.80;88.50
44111;DHT22;29774;52.664;5.074;2023-03-01T01:52:16;-3274.80;88.10
44111;DHT22;29774;52.664;5.074;2023-03-01T01:57:21;-3274.80;87.90
44111;DHT22;29774;52.664;5.074;2023-03-01T01:59:51;-3274.70;87.80
44111;DHT22;29774;52.664;5.074;2023-03-01T02:02:18;-3274.70;87.80
44111;DHT22;29774;52.664;5.074;2023-03-01T02:04:44;-3274.70;87.90
44111;DHT22;29774;52.664;5.074;2023-03-01T02:07:21;-3274.70;88.00
44111;DHT22;29774;52.664;5.074;2023-03-01T02:09:49;-3274.80;88.10
44111;DHT22;29774;52.664;5.074;2023-03-01T02:12:18;-3274.80;88.20
44111;DHT22;29774;52.664;5.074;2023-03-01T02:14:45;-3274.80;88.20
44111;DHT22;29774;52.664;5.074;2023-03-01T02:17:12;-3274.80;88.30
44111;DHT22;29774;52.664;5.074;2023-03-01T02:20:04;-3274.80;88.20
44111;DHT22;29774;52.664;5.074;2023-03-01T02:22:37;-3274.70;88.20
44111;DHT22;29774;52.664;5.074;2023-03-01T02:28:01;-3274.70;88.00
44111;DHT22;29774;52.664;5.074;2023-03-01T02:30:31;-3274.60;88.10
44111;DHT22;29774;52.664;5.074;2023-03-01T02:32:59;-3274.60;88.10
44111;DHT22;29774;52.664;5.074;2023-03-01T02:35:35;-3274.70;88.20
44111;DHT22;29774;52.664;5.074;2023-03-01T02:38:03;-3274.70;88.40
44111;DHT22;29774;52.664;5.074;2023-03-01T02:40:33;-3274.70;88.40
44111;DHT22;29774;52.664;5.074;2023-03-01T02:42:59;-3274.70;88.40
44111;DHT22;29774;52.664;5.074;2023-03-01T02:45:26;-3274.70;88.50
44111;DHT22;29774;52.664;5.074;2023-03-01T02:47:56;-3274.60;88.40
44111;DHT22;29774;52.664;5.074;2023-03-01T02:53:01;-3274.50;88.10
44111;DHT22;29774;52.664;5.074;2023-03-01T02:55:30;-3274.50;87.90
44111;DHT22;29774;52.664;5.074;2023-03-01T02:57:56;-3274.50;88.00
44111;DHT22;29774;52.664;5.074;2023-03-01T03:00:32;-3274.50;88.00
44111;DHT22;29774;52.664;5.074;2023-03-01T03:02:59;-3274.40;87.80
44111;DHT22;29774;52.664;5.074;2023-03-01T03:05:27;-3274.30;87.60
44111;DHT22;29774;52.664;5.074;2023-03-01T03:07:54;-3274.40;87.80
44111;DHT22;29774;52.664;5.074;2023-03-01T03:10:23;-3274.40;87.70
44111;DHT22;29774;52.664;5.074;2023-03-01T03:13:01;-3274.40;87.60
44111;DHT22;29774;52.664;5.074;2023-03-01T03:15:27;-3274.40;87.70
44111;DHT22;29774;52.664;5.074;2023-03-01T03:17:55;-3274.40;87.70
44111;DHT22;29774;52.664;5.074;2023-03-01T03:20:24;-3274.30;87.60
44111;DHT22;29774;52.664;5.074;2023-03-01T03:22:52;-3274.30;87.70
44111;DHT22;29774;52.664;5.074;2023-03-01T03:25:19;-3274.30;87.70
44111;DHT22;29774;52.664;5.074;2023-03-01T03:27:46;-3274.20;87.80
44111;DHT22;29774;52.664;5.074;2023-03-01T03:30:17;-3274.20;87.80
44111;DHT22;29774;52.664;5.074;2023-03-01T03:32:46;-3274.20;87.80
44111;DHT22;29774;52.664;5.074;2023-03-01T03:35:23;-3274.20;88.00
44111;DHT22;29774;52.664;5.074;2023-03-01T03:37:50;-3274.20;88.00
44111;DHT22;29774;52.664;5.074;2023-03-01T03:40:31;-3274.10;88.00
44111;DHT22;29774;52.664;5.074;2023-03-01T03:42:57;-3274.10;88.10
44111;DHT22;29774;52.664;5.074;2023-03-01T03:45:23;-3274.20;88.30
44111;DHT22;29774;52.664;5.074;2023-03-01T03:47:49;-3274.10;88.30
44111;DHT22;29774;52.664;5.074;2023-03-01T03:50:16;-3274.20;88.50
44111;DHT22;29774;52.664;5.074;2023-03-01T03:52:42;-3274.10;88.40
44111;DHT22;29774;52.664;5.074;2023-03-01T03:55:09;-3274.20;88.60
44111;DHT22;29774;52.664;5.074;2023-03-01T03:57:40;-3274.20;88.60
44111;DHT22;29774;52.664;5.074;2023-03-01T04:00:11;-3274.10;88.40
44111;DHT22;29774;52.664;5.074;2023-03-01T04:02:40;-3274.10;88.30
44111;DHT22;29774;52.664;5.074;2023-03-01T04:05:07;-3274.10;88.40
44111;DHT22;29774;52.664;5.074;2023-03-01T04:07:37;-3274.10;88.20
44111;DHT22;29774;52.664;5.074;2023-03-01T04:10:04;-3274.10;88.10
44111;DHT22;29774;52.664;5.074;2023-03-01T04:12:31;-3274.00;87.90
44111;DHT22;29774;52.664;5.074;2023-03-01T04:14:59;-3274.10;87.90
44111;DHT22;29774;52.664;5.074;2023-03-01T04:17:25;-3274.00;87.70
44111;DHT22;29774;52.664;5.074;2023-03-01T04:19:51;-3274.00;87.60
44111;DHT22;29774;52.664;5.074;2023-03-01T04:22:17;-3274.00;87.50
44111;DHT22;29774;52.664;5.074;2023-03-01T04:24:44;-3274.00;87.60
44111;DHT22;29774;52.664;5.074;2023-03-01T04:27:10;-3274.00;87.90
44111;DHT22;29774;52.664;5.074;2023-03-01T04:29:36;-3274.00;88.00
44111;DHT22;29774;52.664;5.074;2023-03-01T04:32:02;-3273.90;88.10
44111;DHT22;29774;52.664;5.074;2023-03-01T04:34:28;-3273.90;88.00
44111;DHT22;29774;52.664;5.074;2023-03-01T04:36:54;-3273.80;88.00
44111;DHT22;29774;52.664;5.074;2023-03-01T04:39:20;-3273.90;88.10
44111;DHT22;29774;52.664;5.074;2023-03-01T04:41:46;-3274.00;88.20
44111;DHT22;29774;52.664;5.074;2023-03-01T04:44:12;-3273.90;88.10
44111;DHT22;29774;52.664;5.074;2023-03-01T04:46:38;-3274.00;88.10
44111;DHT22;29774;52.664;5.074;2023-03-01T04:49:04;-3273.90;88.20
44111;DHT22;29774;52.664;5.074;2023-03-01T04:51:30;-3273.90;88.30
44111;DHT22;29774;52.664;5.074;2023-03-01T04:53:58;-3274.00;88.60
44111;DHT22;29774;52.664;5.074;2023-03-01T04:56:23;-3273.90;88.60
44111;DHT22;29774;52.664;5.074;2023-03-01T04:58:49;-3274.00;88.70
44111;DHT22;29774;52.664;5.074;2023-03-01T05:01:17;-3274.00;88.80
44111;DHT22;29774;52.664;5.074;2023-03-01T05:03:45;-3274.00;88.70
44111;DHT22;29774;52.664;5.074;2023-03-01T05:06:11;-3273.90;88.70
44111;DHT22;29774;52.664;5.074;2023-03-01T05:08:41;-3273.90;88.60
44111;DHT22;29774;52.664;5.074;2023-03-01T05:11:08;-3274.00;88.50
44111;DHT22;29774;52.664;5.074;2023-03-01T05:13:36;-3273.90;88.30
44111;DHT22;29774;52.664;5.074;2023-03-01T05:16:03;-3273.80;88.20
44111;DHT22;29774;52.664;5.074;2023-03-01T05:18:32;-3273.80;88.40
44111;DHT22;29774;52.664;5.074;2023-03-01T05:21:07;-3273.80;88.30
44111;DHT22;29774;52.664;5.074;2023-03-01T05:23:34;-3273.90;88.50
44111;DHT22;29774;52.664;5.074;2023-03-01T05:26:01;-3273.90;88.60
44111;DHT22;29774;52.664;5.074;2023-03-01T05:28:28;-3273.90;88.60
44111;DHT22;29774;52.664;5.074;2023-03-01T05:30:54;-3273.80;88.50
44111;DHT22;29774;52.664;5.074;2023-03-01T05:33:20;-3273.80;88.30
44111;DHT22;29774;52.664;5.074;2023-03-01T05:35:47;-3273.70;88.10
44111;DHT22;29774;52.664;5.074;2023-03-01T05:38:14;-3273.80;88.20
44111;DHT22;29774;52.664;5.074;2023-03-01T05:40:45;-3273.80;88.30
44111;DHT22;29774;52.664;5.074;2023-03-01T05:43:11;-3273.70;88.10
44111;DHT22;29774;52.664;5.074;2023-03-01T05:45:38;-3273.60;87.80
44111;DHT22;29774;52.664;5.074;2023-03-01T05:48:05;-3273.60;87.60
44111;DHT22;29774;52.664;5.074;2023-03-01T05:50:34;-3273.70;87.50
44111;DHT22;29774;52.664;5.074;2023-03-01T05:53:02;-3273.60;87.30
44111;DHT22;29774;52.664;5.074;2023-03-01T05:55:30;-3273.50;87.00
44111;DHT22;29774;52.664;5.074;2023-03-01T05:58:01;-3273.50;86.80
44111;DHT22;29774;52.664;5.074;2023-03-01T06:00:27;-3273.40;86.60
44111;DHT22;29774;52.664;5.074;2023-03-01T06:02:54;-3273.40;86.50
44111;DHT22;29774;52.664;5.074;2023-03-01T06:05:20;-3273.40;86.50
44111;DHT22;29774;52.664;5.074;2023-03-01T06:07:46;-3273.40;86.70
44111;DHT22;29774;52.664;5.074;2023-03-01T06:10:13;-3273.40;86.60
44111;DHT22;29774;52.664;5.074;2023-03-01T06:12:40;-3273.40;86.50
44111;DHT22;29774;52.664;5.074;2023-03-01T06:15:07;-3273.50;86.70
44111;DHT22;29774;52.664;5.074;2023-03-01T06:17:36;-3273.50;86.60
44111;DHT22;29774;52.664;5.074;2023-03-01T06:20:08;-3273.50;86.50
44111;DHT22;29774;52.664;5.074;2023-03-01T06:22:35;-3273.50;86.30
44111;DHT22;29774;52.664;5.074;2023-03-01T06:25:01;-3273.50;86.60
44111;DHT22;29774;52.664;5.074;2023-03-01T06:27:26;-3273.60;86.90
44111;DHT22;29774;52.664;5.074;2023-03-01T06:29:52;-3273.70;87.20
44111;DHT22;29774;52.664;5.074;2023-03-01T06:32:18;-3273.60;87.20
44111;DHT22;29774;52.664;5.074;2023-03-01T06:34:44;-3273.60;87.10
44111;DHT22;29774;52.664;5.074;2023-03-01T06:37:10;-3273.70;87.30
44111;DHT22;29774;52.664;5.074;2023-03-01T06:39:36;-3273.90;87.90
44111;DHT22;29774;52.664;5.074;2023-03-01T06:42:02;-3274.20;88.40
44111;DHT22;29774;52.664;5.074;2023-03-01T06:44:28;-3274.30;88.90
44111;DHT22;29774;52.664;5.074;2023-03-01T06:46:53;-3274.40;89.30
44111;DHT22;29774;52.664;5.074;2023-03-01T06:49:19;-3274.40;89.50
44111;DHT22;29774;52.664;5.074;2023-03-01T06:51:45;-3274.40;89.60
44111;DHT22;29774;52.664;5.074;2023-03-01T06:54:11;-3274.40;89.70
44111;DHT22;29774;52.664;5.074;2023-03-01T06:56:37;-3274.30;89.50
44111;DHT22;29774;52.664;5.074;2023-03-01T06:59:03;-3274.30;89.50
44111;DHT22;29774;52.664;5.074;2023-03-01T07:01:30;-3274.30;89.50
44111;DHT22;29774;52.664;5.074;2023-03-01T07:03:55;-3274.40;89.50
44111;DHT22;29774;52.664;5.074;2023-03-01T07:06:21;-3274.50;89.50
44111;DHT22;29774;52.664;5.074;2023-03-01T07:08:47;-3274.50;89.70
44111;DHT22;29774;52.664;5.074;2023-03-01T07:11:13;-3274.60;89.50
44111;DHT22;29774;52.664;5.074;2023-03-01T07:13:38;-3274.60;89.50
44111;DHT22;29774;52.664;5.074;2023-03-01T07:16:04;-3274.60;89.50
44111;DHT22;29774;52.664;5.074;2023-03-01T07:18:30;-3274.90;89.70
44111;DHT22;29774;52.664;5.074;2023-03-01T07:20:56;-3275.00;89.90
44111;DHT22;29774;52.664;5.074;2023-03-01T07:23:21;-3275.30;90.10
44111;DHT22;29774;52.664;5.074;2023-03-01T07:25:54;-3275.60;90.40
44111;DHT22;29774;52.664;5.074;2023-03-01T07:28:20;-3275.70;90.60
44111;DHT22;29774;52.664;5.074;2023-03-01T07:30:47;-3275.90;90.80
44111;DHT22;29774;52.664;5.074;2023-03-01T07:33:13;-3276.10;91.00
44111;DHT22;29774;52.664;5.074;2023-03-01T07:35:38;-3276.30;91.30
44111;DHT22;29774;52.664;5.074;2023-03-01T07:38:04;-3276.60;91.60
44111;DHT22;29774;52.664;5.074;2023-03-01T07:40:29;0.00;91.80
44111;DHT22;29774;52.664;5.074;2023-03-01T07:42:56;0.10;92.00
44111;DHT22;29774;52.664;5.074;2023-03-01T07:45:22;0.40;92.20
44111;DHT22;29774;52.664;5.074;2023-03-01T07:47:47;0.60;92.40
44111;DHT22;29774;52.664;5.074;2023-03-01T07:50:13;0.80;92.50
44111;DHT22;29774;52.664;5.074;2023-03-01T07:52:39;1.10;92.60
44111;DHT22;29774;52.664;5.074;2023-03-01T07:55:05;1.30;92.70
44111;DHT22;29774;52.664;5.074;2023-03-01T07:57:30;1.50;92.80
44111;DHT22;29774;52.664;5.074;2023-03-01T07:59:57;1.80;92.90
44111;DHT22;29774;52.664;5.074;2023-03-01T08:02:22;2.10;93.00
44111;DHT22;29774;52.664;5.074;2023-03-01T08:04:48;2.30;93.00
44111;DHT22;29774;52.664;5.074;2023-03-01T08:07:14;2.40;93.00
44111;DHT22;29774;52.664;5.074;2023-03-01T08:09:39;2.60;93.00
44111;DHT22;29774;52.664;5.074;2023-03-01T08:12:05;2.70;93.00
44111;DHT22;29774;52.664;5.074;2023-03-01T08:14:34;3.00;93.00
44111;DHT22;29774;52.664;5.074;2023-03-01T08:17:00;3.20;93.00
44111;DHT22;29774;52.664;5.074;2023-03-01T08:19:28;3.40;93.00
44111;DHT22;29774;52.664;5.074;2023-03-01T08:21:54;3.60;92.90
44111;DHT22;29774;52.664;5.074;2023-03-01T08:24:19;3.70;92.70
44111;DHT22;29774;52.664;5.074;2023-03-01T08:26:45;3.70;92.40
44111;DHT22;29774;52.664;5.074;2023-03-01T08:29:11;3.70;91.90
44111;DHT22;29774;52.664;5.074;2023-03-01T08:31:38;3.70;91.20
44111;DHT22;29774;52.664;5.074;2023-03-01T08:34:07;3.70;90.30
44111;DHT22;29774;52.664;5.074;2023-03-01T08:36:36;3.50;89.20
44111;DHT22;29774;52.664;5.074;2023-03-01T08:39:02;3.20;88.50
44111;DHT22;29774;52.664;5.074;2023-03-01T08:41:28;3.10;88.50
44111;DHT22;29774;52.664;5.074;2023-03-01T08:43:54;2.90;88.70
44111;DHT22;29774;52.664;5.074;2023-03-01T08:46:25;2.70;89.00
44111;DHT22;29774;52.664;5.074;2023-03-01T08:48:51;2.70;89.30
44111;DHT22;29774;52.664;5.074;2023-03-01T08:51:18;2.80;89.70
44111;DHT22;29774;52.664;5.074;2023-03-01T08:53:44;2.80;89.90
44111;DHT22;29774;52.664;5.074;2023-03-01T08:56:10;2.80;90.10
44111;DHT22;29774;52.664;5.074;2023-03-01T08:58:36;2.70;90.20
44111;DHT22;29774;52.664;5.074;2023-03-01T09:01:10;2.80;90.40
44111;DHT22;29774;52.664;5.074;2023-03-01T09:03:36;3.00;90.80
44111;DHT22;29774;52.664;5.074;2023-03-01T09:06:02;3.10;90.80
44111;DHT22;29774;52.664;5.074;2023-03-01T09:08:28;3.20;90.90
44111;DHT22;29774;52.664;5.074;2023-03-01T09:10:54;3.40;91.00
44111;DHT22;29774;52.664;5.074;2023-03-01T09:13:20;3.50;91.00
44111;DHT22;29774;52.664;5.074;2023-03-01T09:15:46;3.50;90.90
44111;DHT22;29774;52.664;5.074;2023-03-01T09:18:11;3.50;90.70
44111;DHT22;29774;52.664;5.074;2023-03-01T09:20:37;3.50;90.40
44111;DHT22;29774;52.664;5.074;2023-03-01T09:23:02;3.60;90.30
44111;DHT22;29774;52.664;5.074;2023-03-01T09:25:28;3.80;90.30
44111;DHT22;29774;52.664;5.074;2023-03-01T09:27:54;3.80;89.80
44111;DHT22;29774;52.664;5.074;2023-03-01T09:30:20;4.00;89.70
44111;DHT22;29774;52.664;5.074;2023-03-01T09:32:46;4.40;89.60
44111;DHT22;29774;52.664;5.074;2023-03-01T09:35:13;4.70;89.70
44111;DHT22;29774;52.664;5.074;2023-03-01T09:37:39;4.80;88.90
44111;DHT22;29774;52.664;5.074;2023-03-01T09:40:28;4.90;88.20
44111;DHT22;29774;52.664;5.074;2023-03-01T09:43:25;5.10;87.60
44111;DHT22;29774;52.664;5.074;2023-03-01T09:45:55;5.20;86.60
44111;DHT22;29774;52.664;5.074;2023-03-01T09:48:26;5.70;87.50
44111;DHT22;29774;52.664;5.074;2023-03-01T09:50:55;6.10;87.20
44111;DHT22;29774;52.664;5.074;2023-03-01T09:53:26;6.40;85.70
44111;DHT22;29774;52.664;5.074;2023-03-01T09:56:04;6.60;84.30
44111;DHT22;29774;52.664;5.074;2023-03-01T10:03:44;6.90;80.30
44111;DHT22;29774;52.664;5.074;2023-03-01T10:06:29;6.90;79.10
44111;DHT22;29774;52.664;5.074;2023-03-01T10:09:05;7.10;80.50
44111;DHT22;29774;52.664;5.074;2023-03-01T10:11:39;7.30;80.40
44111;DHT22;29774;52.664;5.074;2023-03-01T10:17:26;7.60;77.10
44111;DHT22;29774;52.664;5.074;2023-03-01T10:19:53;7.70;78.10
44111;DHT22;29774;52.664;5.074;2023-03-01T10:22:28;7.80;77.90
44111;DHT22;29774;52.664;5.074;2023-03-01T10:24:56;8.20;78.30
44111;DHT22;29774;52.664;5.074;2023-03-01T10:27:25;8.40;75.00
44111;DHT22;29774;52.664;5.074;2023-03-01T10:32:45;8.60;71.50
44111;DHT22;29774;52.664;5.074;2023-03-01T10:35:21;8.80;72.80
44111;DHT22;29774;52.664;5.074;2023-03-01T10:38:05;9.00;71.40
44111;DHT22;29774;52.664;5.074;2023-03-01T10:40:33;8.90;69.80
44111;DHT22;29774;52.664;5.074;2023-03-01T10:43:01;9.20;72.00
44111;DHT22;29774;52.664;5.074;2023-03-01T10:45:37;9.30;71.20
44111;DHT22;29774;52.664;5.074;2023-03-01T10:50:46;9.40;69.40
44111;DHT22;29774;52.664;5.074;2023-03-01T10:53:30;9.50;69.70
44111;DHT22;29774;52.664;5.074;2023-03-01T10:58:38;10.00;66.80
44111;DHT22;29774;52.664;5.074;2023-03-01T11:03:40;10.10;66.40
44111;DHT22;29774;52.664;5.074;2023-03-01T11:08:46;10.20;62.60
44111;DHT22;29774;52.664;5.074;2023-03-01T11:11:14;10.30;64.00
44111;DHT22;29774;52.664;5.074;2023-03-01T11:18:58;10.60;60.90
44111;DHT22;29774;52.664;5.074;2023-03-01T11:21:25;10.60;59.90
44111;DHT22;29774;52.664;5.074;2023-03-01T11:23:53;10.60;59.80
44111;DHT22;29774;52.664;5.074;2023-03-01T11:26:19;10.60;60.20
44111;DHT22;29774;52.664;5.074;2023-03-01T11:28:48;10.80;58.60
44111;DHT22;29774;52.664;5.074;2023-03-01T11:31:15;10.80;54.70
44111;DHT22;29774;52.664;5.074;2023-03-01T11:39:38;10.60;50.60
44111;DHT22;29774;52.664;5.074;2023-03-01T11:42:44;10.30;50.90
44111;DHT22;29774;52.664;5.074;2023-03-01T11:45:12;10.30;50.40
44111;DHT22;29774;52.664;5.074;2023-03-01T11:50:34;10.40;49.50
44111;DHT22;29774;52.664;5.074;2023-03-01T11:56:27;10.50;48.80
44111;DHT22;29774;52.664;5.074;2023-03-01T12:07:21;10.30;49.60
44111;DHT22;29774;52.664;5.074;2023-03-01T12:10:23;10.30;48.50
44111;DHT22;29774;52.664;5.074;2023-03-01T12:18:42;10.20;48.50
44111;DHT22;29774;52.664;5.074;2023-03-01T12:24:23;9.80;48.60
44111;DHT22;29774;52.664;5.074;2023-03-01T12:32:30;10.00;47.60
44111;DHT22;29774;52.664;5.074;2023-03-01T12:35:11;9.80;47.30
44111;DHT22;29774;52.664;5.074;2023-03-01T12:45:34;8.20;52.10
44111;DHT22;29774;52.664;5.074;2023-03-01T12:50:57;7.80;53.00
44111;DHT22;29774;52.664;5.074;2023-03-01T12:53:40;7.60;54.50
44111;DHT22;29774;52.664;5.074;2023-03-01T12:56:11;7.40;52.40
44111;DHT22;29774;52.664;5.074;2023-03-01T13:06:19;6.70;58.00
44111;DHT22;29774;52.664;5.074;2023-03-01T13:08:55;6.70;58.30
44111;DHT22;29774;52.664;5.074;2023-03-01T13:11:25;6.50;59.70
44111;DHT22;29774;52.664;5.074;2023-03-01T13:14:56;6.40;60.80
44111;DHT22;29774;52.664;5.074;2023-03-01T13:16:57;6.30;61.30
44111;DHT22;29774;52.664;5.074;2023-03-01T13:19:25;6.30;62.40
44111;DHT22;29774;52.664;5.074;2023-03-01T13:21:53;6.30;62.40
44111;DHT22;29774;52.664;5.074;2023-03-01T13:29:50;6.20;63.60
44111;DHT22;29774;52.664;5.074;2023-03-01T13:32:30;6.20;63.30
44111;DHT22;29774;52.664;5.074;2023-03-01T13:37:41;6.20;63.30
44111;DHT22;29774;52.664;5.074;2023-03-01T13:42:45;6.10;64.80
44111;DHT22;29774;52.664;5.074;2023-03-01T13:45:38;6.10;65.40
44111;DHT22;29774;52.664;5.074;2023-03-01T13:48:14;6.10;65.60
44111;DHT22;29774;52.664;5.074;2023-03-01T13:50:49;6.20;65.20
44111;DHT22;29774;52.664;5.074;2023-03-01T13:53:19;6.10;64.30
44111;DHT22;29774;52.664;5.074;2023-03-01T13:55:50;6.10;64.30
44111;DHT22;29774;52.664;5.074;2023-03-01T13:58:31;6.10;64.70
44111;DHT22;29774;52.664;5.074;2023-03-01T14:01:00;6.00;64.60
44111;DHT22;29774;52.664;5.074;2023-03-01T14:03:27;6.00;64.40
44111;DHT22;29774;52.664;5.074;2023-03-01T14:06:07;5.90;64.10
44111;DHT22;29774;52.664;5.074;2023-03-01T14:08:35;6.00;64.60
44111;DHT22;29774;52.664;5.074;2023-03-01T14:11:35;6.00;65.10
44111;DHT22;29774;52.664;5.074;2023-03-01T14:16:56;6.00;64.70
44111;DHT22;29774;52.664;5.074;2023-03-01T14:19:26;6.10;65.10
44111;DHT22;29774;52.664;5.074;2023-03-01T14:22:24;6.10;64.80
44111;DHT22;29774;52.664;5.074;2023-03-01T14:25:02;6.10;64.90
44111;DHT22;29774;52.664;5.074;2023-03-01T14:27:37;6.20;65.50
44111;DHT22;29774;52.664;5.074;2023-03-01T14:30:16;6.10;66.10
44111;DHT22;29774;52.664;5.074;2023-03-01T14:32:55;6.20;66.00
44111;DHT22;29774;52.664;5.074;2023-03-01T14:35:40;6.20;65.40
44111;DHT22;29774;52.664;5.074;2023-03-01T14:38:21;6.20;64.80
44111;DHT22;29774;52.664;5.074;2023-03-01T14:40:51;6.20;64.70
44111;DHT22;29774;52.664;5.074;2023-03-01T14:43:22;6.10;65.40
44111;DHT22;29774;52.664;5.074;2023-03-01T14:45:50;6.10;64.40
44111;DHT22;29774;52.664;5.074;2023-03-01T14:48:17;6.20;64.50
44111;DHT22;29774;52.664;5.074;2023-03-01T14:50:44;6.10;64.60
44111;DHT22;29774;52.664;5.074;2023-03-01T14:53:25;6.10;64.50
44111;DHT22;29774;52.664;5.074;2023-03-01T14:55:55;6.10;65.20
44111;DHT22;29774;52.664;5.074;2023-03-01T14:58:23;6.10;64.70
44111;DHT22;29774;52.664;5.074;2023-03-01T15:00:58;6.20;64.80
44111;DHT22;29774;52.664;5.074;2023-03-01T15:03:33;6.20;64.30
44111;DHT22;29774;52.664;5.074;2023-03-01T15:06:01;6.10;64.70
44111;DHT22;29774;52.664;5.074;2023-03-01T15:08:27;6.10;64.60
44111;DHT22;29774;52.664;5.074;2023-03-01T15:11:21;6.20;64.80
44111;DHT22;29774;52.664;5.074;2023-03-01T15:13:48;6.20;65.10
44111;DHT22;29774;52.664;5.074;2023-03-01T15:16:17;6.10;65.30
44111;DHT22;29774;52.664;5.074;2023-03-01T15:21:22;6.10;64.50
44111;DHT22;29774;52.664;5.074;2023-03-01T15:26:43;6.10;65.00
44111;DHT22;29774;52.664;5.074;2023-03-01T15:29:17;6.10;65.20
44111;DHT22;29774;52.664;5.074;2023-03-01T15:31:54;6.10;65.20
44111;DHT22;29774;52.664;5.074;2023-03-01T15:34:25;6.00;65.30
44111;DHT22;29774;52.664;5.074;2023-03-01T15:36:53;6.00;64.90
44111;DHT22;29774;52.664;5.074;2023-03-01T15:39:42;6.00;64.90
44111;DHT22;29774;52.664;5.074;2023-03-01T15:45:10;6.10;65.00
44111;DHT22;29774;52.664;5.074;2023-03-01T15:47:39;6.10;64.80
44111;DHT22;29774;52.664;5.074;2023-03-01T15:50:11;6.00;65.20
44111;DHT22;29774;52.664;5.074;2023-03-01T15:52:42;6.10;65.30
44111;DHT22;29774;52.664;5.074;2023-03-01T15:55:19;6.10;65.40
44111;DHT22;29774;52.664;5.074;2023-03-01T15:57:45;6.00;65.40
44111;DHT22;29774;52.664;5.074;2023-03-01T16:00:12;6.00;65.20
44111;DHT22;29774;52.664;5.074;2023-03-01T16:02:39;5.90;65.60
44111;DHT22;29774;52.664;5.074;2023-03-01T16:05:09;5.90;65.80
44111;DHT22;29774;52.664;5.074;2023-03-01T16:07:39;5.90;65.80
44111;DHT22;29774;52.664;5.074;2023-03-01T16:10:05;5.90;65.90
44111;DHT22;29774;52.664;5.074;2023-03-01T16:12:31;5.90;66.00
44111;DHT22;29774;52.664;5.074;2023-03-01T16:14:57;5.80;66.00
44111;DHT22;29774;52.664;5.074;2023-03-01T16:17:23;5.80;66.00
44111;DHT22;29774;52.664;5.074;2023-03-01T16:19:48;5.80;66.10
44111;DHT22;29774;52.664;5.074;2023-03-01T16:22:14;5.80;66.30
44111;DHT22;29774;52.664;5.074;2023-03-01T16:24:39;5.70;66.30
44111;DHT22;29774;52.664;5.074;2023-03-01T16:27:06;5.70;66.40
44111;DHT22;29774;52.664;5.074;2023-03-01T16:29:32;5.70;66.40
44111;DHT22;29774;52.664;5.074;2023-03-01T16:32:01;5.60;66.40
44111;DHT22;29774;52.664;5.074;2023-03-01T16:34:27;5.50;66.70
44111;DHT22;29774;52.664;5.074;2023-03-01T16:36:53;5.50;66.90
44111;DHT22;29774;52.664;5.074;2023-03-01T16:39:18;5.50;67.40
44111;DHT22;29774;52.664;5.074;2023-03-01T16:41:44;5.50;67.60
44111;DHT22;29774;52.664;5.074;2023-03-01T16:44:09;5.50;68.10
44111;DHT22;29774;52.664;5.074;2023-03-01T16:46:35;5.40;68.20
44111;DHT22;29774;52.664;5.074;2023-03-01T16:49:01;5.40;68.50
44111;DHT22;29774;52.664;5.074;2023-03-01T16:51:28;5.30;68.90
44111;DHT22;29774;52.664;5.074;2023-03-01T16:53:55;5.20;69.50
44111;DHT22;29774;52.664;5.074;2023-03-01T16:56:20;5.20;69.90
44111;DHT22;29774;52.664;5.074;2023-03-01T16:58:46;5.20;70.30
44111;DHT22;29774;52.664;5.074;2023-03-01T17:01:18;5.20;70.60
44111;DHT22;29774;52.664;5.074;2023-03-01T17:03:46;5.10;70.80
44111;DHT22;29774;52.664;5.074;2023-03-01T17:06:15;5.10;71.00
44111;DHT22;29774;52.664;5.074;2023-03-01T17:08:42;5.00;71.20
44111;DHT22;29774;52.664;5.074;2023-03-01T17:11:18;5.00;71.50
44111;DHT22;29774;52.664;5.074;2023-03-01T17:13:45;4.90;71.80
44111;DHT22;29774;52.664;5.074;2023-03-01T17:16:14;4.80;71.90
44111;DHT22;29774;52.664;5.074;2023-03-01T17:18:41;4.80;72.10